Hilton Head Island, South Carolina
Current Conditions -  °F | °C
As of 4:50 PM on Sunday 23 Nov 2014 (Local Time) from KHXD Reporting Station
Haze Haze  
Wind Chill: 68°   Ceiling: 400
Heat Index: 68°   Visibility: 2mi
Dew Point: 68°   Wind: 3mph
Humidity: 100%   Direction: 110°ESE
Pressure: 29.85"   Gusts: NA
Location:  32.15°N, 80.76°W
Report Text: KHXD 232150Z 11003KT 2SM BR OVC004 20/20 A2985
Loading
Personal Weather Stations






























Interactive Weather Map New forecast layout! Learn more

10-Day Weather Forecast

Advertisements
Track Severe Weather on mobile